Time,TemperatureF,DewpointF,PressureIn,WindDirection,WindDirectionDegrees,WindSpeedMPH,WindSpeedGustMPH,Humidity,HourlyPrecipIn,Conditions,Clouds,dailyrainin,SoftwareType,DateUTC
2013-07-09 00:00:00,74.7,69.5,30.19,WSW,249,2.0,3.0,84,0.00,RA,,0.00,WeatherDisplay:10.37,2013-07-09 05:00:00,
2013-07-09 00:05:00,74.7,69.5,30.19,WSW,249,2.0,2.0,84,0.00,RA,,0.00,WeatherDisplay:10.37,2013-07-09 05:05:00,
2013-07-09 00:10:00,74.1,69.0,30.19,WSW,249,2.0,3.0,84,0.00,CLR,,0.00,WeatherDisplay:10.37,2013-07-09 05:10:00,
2013-07-09 00:20:00,73.6,68.8,30.19,WSW,249,2.0,3.0,85,0.00,CLR,,0.00,WeatherDisplay:10.37,2013-07-09 05:20:00,
2013-07-09 00:25:00,73.2,68.4,30.19,WSW,249,2.0,3.0,85,0.00,CLR,,0.00,WeatherDisplay:10.37,2013-07-09 05:25:00,
2013-07-09 00:30:00,73.0,68.3,30.18,WSW,249,2.0,3.0,85,0.00,CLR,,0.00,WeatherDisplay:10.37,2013-07-09 05:30:00,
2013-07-09 00:35:00,72.9,68.1,30.18,WSW,249,2.0,3.0,85,0.00,CLR,,0.00,WeatherDisplay:10.37,2013-07-09 05:35:00,
2013-07-09 00:40:00,72.7,67.9,30.19,WSW,249,2.0,3.0,85,0.00,CLR,,0.00,WeatherDisplay:10.37,2013-07-09 05:40:00,
2013-07-09 00:45:00,72.5,67.7,30.19,WSW,249,2.0,3.0,85,0.00,CLR,,0.00,WeatherDisplay:10.37,2013-07-09 05:45:00,
2013-07-09 00:50:00,72.5,68.1,30.19,WSW,249,2.0,3.0,86,0.00,CLR,,0.00,WeatherDisplay:10.37,2013-07-09 05:50:00,
2013-07-09 01:00:00,72.6,68.1,30.19,WSW,249,2.0,3.0,86,0.00,CLR,,0.00,WeatherDisplay:10.37,2013-07-09 06:00:00,
2013-07-09 01:10:00,72.9,68.8,30.19,WSW,249,2.0,3.0,87,0.00,CLR,,0.00,WeatherDisplay:10.37,2013-07-09 06:10:00,
2013-07-09 01:20:00,73.0,69.3,30.19,WSW,249,2.0,3.0,88,0.00,CLR,,0.00,WeatherDisplay:10.37,2013-07-09 06:20:00,
2013-07-09 01:30:00,73.2,69.5,30.19,WSW,249,2.0,3.0,88,0.00,CLR,,0.00,WeatherDisplay:10.37,2013-07-09 06:30:00,
2013-07-09 01:35:00,73.6,70.1,30.19,WSW,249,2.0,3.0,89,0.00,CLR,,0.00,WeatherDisplay:10.37,2013-07-09 06:35:00,
2013-07-09 01:40:00,73.6,70.1,30.19,WSW,249,2.0,3.0,89,0.00,CLR,,0.00,WeatherDisplay:10.37,2013-07-09 06:40:00,
2013-07-09 01:50:00,73.8,70.3,30.19,WSW,249,2.0,3.0,89,0.00,CLR,,0.00,WeatherDisplay:10.37,2013-07-09 06:50:00,
2013-07-09 01:55:00,73.8,70.3,30.19,WSW,249,2.0,3.0,89,0.00,CLR,,0.00,WeatherDisplay:10.37,2013-07-09 06:55:00,
2013-07-09 02:05:00,73.8,70.3,30.18,WSW,249,2.0,3.0,89,0.00,CLR,,0.00,WeatherDisplay:10.37,2013-07-09 07:05:00,
2013-07-09 02:10:00,73.7,70.3,30.19,WSW,249,2.0,3.0,89,0.00,CLR,,0.00,WeatherDisplay:10.37,2013-07-09 07:10:00,
2013-07-09 02:15:00,73.6,70.2,30.19,WSW,249,2.0,3.0,89,0.00,CLR,,0.00,WeatherDisplay:10.37,2013-07-09 07:15:00,
2013-07-09 02:25:00,73.6,70.1,30.19,WSW,249,2.0,3.0,89,0.00,CLR,,0.00,WeatherDisplay:10.37,2013-07-09 07:25:00,
2013-07-09 02:30:00,73.6,70.1,30.18,WSW,249,2.0,3.0,89,0.00,CLR,,0.00,WeatherDisplay:10.37,2013-07-09 07:30:00,
2013-07-09 02:35:00,73.8,70.3,30.19,WSW,249,2.0,3.0,89,0.00,CLR,,0.00,WeatherDisplay:10.37,2013-07-09 07:35:00,
2013-07-09 02:40:00,73.8,70.3,30.19,WSW,249,2.0,3.0,89,0.00,CLR,,0.00,WeatherDisplay:10.37,2013-07-09 07:40:00,
2013-07-09 02:45:00,73.8,70.3,30.18,WSW,249,2.0,3.0,89,0.00,CLR,,0.00,WeatherDisplay:10.37,2013-07-09 07:45:00,
2013-07-09 02:55:00,73.8,70.3,30.18,WSW,249,2.0,3.0,89,0.00,CLR,,0.00,WeatherDisplay:10.37,2013-07-09 07:55:00,
2013-07-09 03:05:00,73.6,70.1,30.18,WSW,249,2.0,3.0,89,0.00,CLR,,0.00,WeatherDisplay:10.37,2013-07-09 08:05:00,
2013-07-09 03:10:00,73.6,70.1,30.18,WSW,249,2.0,3.0,89,0.00,CLR,,0.00,WeatherDisplay:10.37,2013-07-09 08:10:00,
2013-07-09 03:20:00,73.6,70.1,30.18,WSW,249,2.0,3.0,89,0.00,CLR,,0.00,WeatherDisplay:10.37,2013-07-09 08:20:00,
2013-07-09 03:30:00,73.6,70.1,30.18,WSW,249,2.0,3.0,89,0.00,CLR,,0.00,WeatherDisplay:10.37,2013-07-09 08:30:00,
2013-07-09 03:35:00,73.6,70.5,30.18,WSW,249,2.0,3.0,90,0.00,CLR,,0.00,WeatherDisplay:10.37,2013-07-09 08:35:00,
2013-07-09 03:40:00,73.6,70.5,30.18,WSW,249,2.0,3.0,90,0.00,CLR,,0.00,WeatherDisplay:10.37,2013-07-09 08:40:00,
2013-07-09 03:50:00,73.6,70.5,30.18,WSW,249,2.0,3.0,90,0.00,CLR,,0.00,WeatherDisplay:10.37,2013-07-09 08:50:00,
2013-07-09 04:00:00,73.6,70.5,30.18,WSW,249,2.0,3.0,90,0.00,CLR,,0.00,WeatherDisplay:10.37,2013-07-09 09:00:00,
2013-07-09 04:05:00,73.6,70.5,30.18,WSW,249,2.0,3.0,90,0.00,CLR,,0.00,WeatherDisplay:10.37,2013-07-09 09:05:00,
2013-07-09 04:10:00,73.6,70.5,30.18,WSW,249,2.0,3.0,90,0.00,CLR,,0.00,WeatherDisplay:10.37,2013-07-09 09:10:00,
2013-07-09 04:15:00,73.4,70.3,30.18,WSW,249,2.0,3.0,90,0.00,CLR,,0.00,WeatherDisplay:10.37,2013-07-09 09:15:00,
2013-07-09 04:25:00,73.3,70.5,30.18,WSW,249,2.0,3.0,91,0.00,CLR,,0.00,WeatherDisplay:10.37,2013-07-09 09:25:00,
2013-07-09 04:30:00,73.2,70.4,30.18,WSW,249,2.0,3.0,91,0.00,CLR,,0.00,WeatherDisplay:10.37,2013-07-09 09:30:00,
2013-07-09 04:40:00,73.0,70.3,30.18,WSW,249,2.0,3.0,91,0.00,CLR,,0.00,WeatherDisplay:10.37,2013-07-09 09:40:00,
2013-07-09 04:45:00,73.0,70.3,30.17,WSW,249,2.0,3.0,91,0.00,CLR,,0.00,WeatherDisplay:10.37,2013-07-09 09:45:00,
2013-07-09 04:50:00,73.0,70.3,30.18,WSW,249,2.0,3.0,91,0.00,CLR,,0.00,WeatherDisplay:10.37,2013-07-09 09:50:00,
2013-07-09 04:55:00,73.0,70.3,30.18,WSW,249,2.0,3.0,91,0.00,CLR,,0.00,WeatherDisplay:10.37,2013-07-09 09:55:00,
2013-07-09 05:00:00,73.0,70.3,30.18,WSW,249,2.0,3.0,91,0.00,CLR,,0.00,WeatherDisplay:10.37,2013-07-09 10:00:00,
2013-07-09 05:05:00,73.0,70.2,30.18,WSW,249,2.0,3.0,91,0.00,CLR,,0.00,WeatherDisplay:10.37,2013-07-09 10:05:00,
2013-07-09 05:10:00,73.0,70.2,30.18,WSW,249,2.0,3.0,91,0.00,CLR,,0.00,WeatherDisplay:10.37,2013-07-09 10:10:00,
2013-07-09 05:15:00,73.0,70.3,30.17,WSW,249,2.0,3.0,91,0.00,CLR,,0.00,WeatherDisplay:10.37,2013-07-09 10:15:00,
2013-07-09 05:20:00,73.0,70.3,30.18,WSW,249,2.0,3.0,91,0.00,CLR,,0.00,WeatherDisplay:10.37,2013-07-09 10:20:00,
2013-07-09 05:30:00,73.2,70.4,30.18,WSW,249,2.0,3.0,91,0.00,CLR,,0.00,WeatherDisplay:10.37,2013-07-09 10:30:00,
2013-07-09 05:35:00,73.5,72.3,30.18,WSW,249,2.0,3.0,96,0.00,CLR,,0.00,WeatherDisplay:10.37,2013-07-09 10:35:00,
2013-07-09 05:40:00,73.6,72.4,30.18,WSW,249,2.0,3.0,96,0.00,CLR,,0.00,WeatherDisplay:10.37,2013-07-09 10:40:00,
2013-07-09 05:45:00,73.6,72.4,30.18,WSW,249,2.0,3.0,96,0.00,CLR,,0.00,WeatherDisplay:10.37,2013-07-09 10:45:00,
2013-07-09 05:50:00,73.8,72.5,30.18,WSW,249,2.0,3.0,96,0.00,CLR,,0.00,WeatherDisplay:10.37,2013-07-09 10:50:00,
2013-07-09 06:00:00,74.1,72.9,30.18,WSW,249,2.0,3.0,96,0.00,CLR,,0.00,WeatherDisplay:10.37,2013-07-09 11:00:00,
2013-07-09 06:05:00,74.3,73.1,30.18,WSW,249,2.0,3.0,96,0.00,CLR,,0.00,WeatherDisplay:10.37,2013-07-09 11:05:00,
2013-07-09 06:10:00,74.8,73.6,30.18,WSW,249,2.0,3.0,96,0.00,CLR,,0.00,WeatherDisplay:10.37,2013-07-09 11:10:00,
2013-07-09 06:15:00,75.0,73.8,30.18,WSW,249,2.0,3.0,96,0.00,CLR,,0.00,WeatherDisplay:10.37,2013-07-09 11:15:00,
2013-07-09 06:20:00,75.5,74.3,30.19,WSW,249,2.0,3.0,96,0.00,CLR,,0.00,WeatherDisplay:10.37,2013-07-09 11:20:00,
2013-07-09 06:30:00,75.7,74.5,30.18,WSW,249,2.0,3.0,96,0.00,CLR,,0.00,WeatherDisplay:10.37,2013-07-09 11:30:00,
2013-07-09 06:35:00,76.0,74.7,30.18,WSW,249,2.0,3.0,96,0.00,CLR,,0.00,WeatherDisplay:10.37,2013-07-09 11:35:00,
2013-07-09 06:40:00,76.4,73.3,30.18,WSW,249,2.0,3.0,90,0.00,CLR,,0.00,WeatherDisplay:10.37,2013-07-09 11:40:00,
2013-07-09 06:45:00,76.6,73.2,30.18,WSW,249,2.0,3.0,89,0.00,CLR,,0.00,WeatherDisplay:10.37,2013-07-09 11:45:00,
2013-07-09 06:50:00,77.0,73.2,30.18,WSW,249,2.0,3.0,88,0.00,CLR,,0.00,WeatherDisplay:10.37,2013-07-09 11:50:00,
2013-07-09 07:00:00,77.2,73.0,30.18,WSW,249,2.0,3.0,87,0.00,CLR,,0.00,WeatherDisplay:10.37,2013-07-09 12:00:00,
2013-07-09 07:10:00,78.3,73.0,30.18,WSW,249,2.0,3.0,84,0.00,CLR,,0.00,WeatherDisplay:10.37,2013-07-09 12:10:00,
2013-07-09 07:20:00,78.9,72.6,30.18,WSW,249,2.0,3.0,81,0.00,CLR,,0.00,WeatherDisplay:10.37,2013-07-09 12:20:00,
2013-07-09 07:25:00,79.2,72.8,30.18,WSW,249,2.0,3.0,81,0.00,CLR,,0.00,WeatherDisplay:10.37,2013-07-09 12:25:00,
2013-07-09 07:30:00,79.3,72.6,30.18,WSW,249,2.0,3.0,80,0.00,CLR,,0.00,WeatherDisplay:10.37,2013-07-09 12:30:00,
2013-07-09 07:35:00,79.7,72.6,30.18,WSW,249,2.0,3.0,79,0.00,CLR,,0.00,WeatherDisplay:10.37,2013-07-09 12:35:00,
2013-07-09 07:40:00,79.9,72.4,30.18,WSW,249,2.0,3.0,78,0.00,CLR,,0.00,WeatherDisplay:10.37,2013-07-09 12:40:00,
2013-07-09 07:45:00,80.2,72.4,30.18,WSW,249,2.0,3.0,77,0.00,CLR,,0.00,WeatherDisplay:10.37,2013-07-09 12:45:00,
2013-07-09 07:50:00,80.8,72.5,30.18,WSW,249,2.0,3.0,76,0.00,CLR,,0.00,WeatherDisplay:10.37,2013-07-09 12:50:00,
2013-07-09 07:55:00,81.0,72.7,30.18,WSW,249,2.0,3.0,76,0.00,CLR,,0.00,WeatherDisplay:10.37,2013-07-09 12:55:00,
2013-07-09 08:05:00,81.9,72.8,30.18,WSW,249,2.0,3.0,74,0.00,CLR,,0.00,WeatherDisplay:10.37,2013-07-09 13:05:00,
2013-07-09 08:10:00,82.0,72.5,30.18,WSW,249,2.0,3.0,73,0.00,CLR,,0.00,WeatherDisplay:10.37,2013-07-09 13:10:00,
2013-07-09 08:15:00,82.5,72.5,30.18,WSW,249,2.0,3.0,72,0.00,CLR,,0.00,WeatherDisplay:10.37,2013-07-09 13:15:00,
2013-07-09 08:20:00,82.9,72.6,30.18,WSW,249,2.0,3.0,71,0.00,CLR,,0.00,WeatherDisplay:10.37,2013-07-09 13:20:00,
2013-07-09 08:25:00,82.8,72.4,30.19,WSW,249,2.0,3.0,71,0.00,CLR,,0.00,WeatherDisplay:10.37,2013-07-09 13:25:00,
2013-07-09 08:30:00,82.8,72.4,30.18,WSW,249,2.0,3.0,71,0.00,CLR,,0.00,WeatherDisplay:10.37,2013-07-09 13:30:00,
2013-07-09 08:35:00,82.9,73.0,30.19,WSW,249,2.0,3.0,72,0.00,CLR,,0.00,WeatherDisplay:10.37,2013-07-09 13:35:00,
2013-07-09 08:40:00,83.1,73.2,30.19,WSW,249,2.0,3.0,72,0.00,CLR,,0.00,WeatherDisplay:10.37,2013-07-09 13:40:00,
2013-07-09 08:50:00,83.7,72.8,30.18,WSW,249,2.0,3.0,70,0.00,CLR,,0.00,WeatherDisplay:10.37,2013-07-09 13:50:00,
2013-07-09 08:55:00,83.7,72.8,30.18,WSW,249,2.0,3.0,70,0.00,CLR,,0.00,WeatherDisplay:10.37,2013-07-09 13:55:00,
2013-07-09 09:00:00,83.7,72.4,30.19,WSW,249,2.0,3.0,69,0.00,CLR,,0.00,WeatherDisplay:10.37,2013-07-09 14:00:00,
2013-07-09 09:05:00,83.7,72.4,30.19,WSW,249,2.0,3.0,69,0.00,CLR,,0.00,WeatherDisplay:10.37,2013-07-09 14:05:00,
2013-07-09 09:10:00,83.8,72.1,30.18,WSW,249,2.0,3.0,68,0.00,CLR,,0.00,WeatherDisplay:10.37,2013-07-09 14:10:00,
2013-07-09 09:20:00,82.9,72.1,30.18,WSW,249,2.0,3.0,70,0.00,CLR,,0.00,WeatherDisplay:10.37,2013-07-09 14:20:00,
2013-07-09 09:30:00,82.8,72.9,30.18,WSW,249,2.0,3.0,72,0.00,CLR,,0.00,WeatherDisplay:10.37,2013-07-09 14:30:00,
2013-07-09 09:35:00,83.3,73.3,30.18,WSW,249,2.0,3.0,72,0.00,CLR,,0.00,WeatherDisplay:10.37,2013-07-09 14:35:00,
2013-07-09 09:40:00,83.5,72.7,30.19,WSW,249,2.0,3.0,70,0.00,CLR,,0.00,WeatherDisplay:10.37,2013-07-09 14:40:00,
2013-07-09 09:45:00,83.8,73.0,30.19,WSW,249,2.0,3.0,70,0.00,CLR,,0.00,WeatherDisplay:10.37,2013-07-09 14:45:00,
2013-07-09 09:50:00,84.0,72.8,30.18,WSW,249,2.0,3.0,69,0.00,CLR,,0.00,WeatherDisplay:10.37,2013-07-09 14:50:00,
2013-07-09 09:55:00,84.4,72.7,30.18,WSW,249,2.0,3.0,68,0.00,CLR,,0.00,WeatherDisplay:10.37,2013-07-09 14:55:00,
2013-07-09 10:00:00,84.2,72.5,30.18,WSW,249,2.0,3.0,68,0.00,CLR,,0.00,WeatherDisplay:10.37,2013-07-09 15:00:00,
2013-07-09 10:05:00,83.3,71.6,30.18,WSW,249,2.0,3.0,68,0.00,CLR,,0.00,WeatherDisplay:10.37,2013-07-09 15:05:00,
2013-07-09 10:10:00,82.8,71.5,30.18,WSW,249,2.0,3.0,69,0.00,CLR,,0.00,WeatherDisplay:10.37,2013-07-09 15:10:00,
2013-07-09 10:15:00,83.2,72.4,30.18,WSW,249,2.0,3.0,70,0.00,CLR,,0.00,WeatherDisplay:10.37,2013-07-09 15:15:00,
2013-07-09 10:20:00,84.4,72.7,30.18,WSW,249,2.0,3.0,68,0.00,CLR,,0.00,WeatherDisplay:10.37,2013-07-09 15:20:00,
2013-07-09 10:25:00,84.7,73.0,30.19,WSW,249,2.0,3.0,68,0.00,CLR,,0.00,WeatherDisplay:10.37,2013-07-09 15:25:00,
2013-07-09 10:30:00,84.2,71.6,30.19,WSW,249,2.0,3.0,66,0.00,CLR,,0.00,WeatherDisplay:10.37,2013-07-09 15:30:00,
2013-07-09 10:40:00,84.4,72.2,30.18,WSW,249,2.0,3.0,67,0.00,CLR,,0.00,WeatherDisplay:10.37,2013-07-09 15:40:00,
2013-07-09 10:50:00,84.9,72.7,30.18,WSW,249,2.0,3.0,67,0.00,CLR,,0.00,WeatherDisplay:10.37,2013-07-09 15:50:00,
2013-07-09 11:00:00,86.2,73.0,30.18,WSW,249,2.0,3.0,65,0.00,CLR,,0.00,WeatherDisplay:10.37,2013-07-09 16:00:00,
2013-07-09 11:05:00,86.4,72.7,30.18,WSW,249,2.0,3.0,64,0.00,CLR,,0.00,WeatherDisplay:10.37,2013-07-09 16:05:00,
2013-07-09 11:10:00,86.3,72.7,30.18,WSW,249,2.0,3.0,64,0.00,CLR,,0.00,WeatherDisplay:10.37,2013-07-09 16:10:00,
2013-07-09 11:15:00,85.9,72.3,30.18,WSW,249,2.0,3.0,64,0.00,CLR,,0.00,WeatherDisplay:10.37,2013-07-09 16:15:00,
2013-07-09 11:20:00,86.4,73.2,30.18,WSW,249,2.0,3.0,65,0.00,CLR,,0.00,WeatherDisplay:10.37,2013-07-09 16:20:00,
2013-07-09 11:25:00,86.5,72.9,30.18,WSW,249,2.0,3.0,64,0.00,CLR,,0.00,WeatherDisplay:10.37,2013-07-09 16:25:00,
2013-07-09 11:30:00,86.2,72.6,30.18,WSW,249,2.0,3.0,64,0.00,CLR,,0.00,WeatherDisplay:10.37,2013-07-09 16:30:00,
2013-07-09 11:40:00,86.2,73.0,30.18,WSW,249,2.0,3.0,65,0.00,CLR,,0.00,WeatherDisplay:10.37,2013-07-09 16:40:00,
2013-07-09 11:45:00,86.4,73.2,30.18,WSW,249,2.0,3.0,65,0.00,CLR,,0.00,WeatherDisplay:10.37,2013-07-09 16:45:00,
2013-07-09 11:50:00,86.5,73.4,30.18,WSW,249,2.0,3.0,65,0.00,CLR,,0.00,WeatherDisplay:10.37,2013-07-09 16:50:00,
2013-07-09 11:55:00,86.8,73.2,30.18,WSW,249,2.0,3.0,64,0.00,CLR,,0.00,WeatherDisplay:10.37,2013-07-09 16:55:00,
2013-07-09 12:00:00,86.4,72.7,30.18,WSW,249,2.0,3.0,64,0.00,CLR,,0.00,WeatherDisplay:10.37,2013-07-09 17:00:00,
2013-07-09 12:05:00,85.3,71.7,30.18,WSW,249,2.0,3.0,64,0.00,CLR,,0.00,WeatherDisplay:10.37,2013-07-09 17:05:00,
2013-07-09 12:15:00,83.3,71.6,30.19,WSW,249,2.0,3.0,68,0.00,CLR,,0.00,WeatherDisplay:10.37,2013-07-09 17:15:00,
2013-07-09 12:20:00,82.7,71.9,30.19,WSW,249,2.0,3.0,70,0.00,CLR,,0.00,WeatherDisplay:10.37,2013-07-09 17:20:00,
2013-07-09 12:30:00,81.5,71.6,30.18,WSW,249,2.0,3.0,72,0.00,CLR,,0.00,WeatherDisplay:10.37,2013-07-09 17:30:00,
2013-07-09 12:40:00,82.0,71.3,30.18,WSW,249,2.0,3.0,70,0.00,CLR,,0.00,WeatherDisplay:10.37,2013-07-09 17:40:00,
2013-07-09 12:45:00,82.0,70.9,30.18,WSW,249,2.0,3.0,69,0.00,CLR,,0.00,WeatherDisplay:10.37,2013-07-09 17:45:00,
2013-07-09 12:50:00,81.9,70.7,30.17,WSW,249,2.0,3.0,69,0.00,CLR,,0.00,WeatherDisplay:10.37,2013-07-09 17:50:00,
2013-07-09 12:55:00,81.0,70.3,30.17,WSW,249,2.0,3.0,70,0.00,CLR,,0.00,WeatherDisplay:10.37,2013-07-09 17:55:00,
2013-07-09 13:05:00,79.0,69.6,30.17,WSW,249,2.0,3.0,73,0.00,CLR,,0.00,WeatherDisplay:10.37,2013-07-09 18:05:00,
2013-07-09 13:10:00,77.9,69.3,30.17,WSW,249,2.0,3.0,75,0.00,CLR,,0.00,WeatherDisplay:10.37,2013-07-09 18:10:00,
2013-07-09 13:20:00,77.7,70.3,30.17,WSW,249,2.0,3.0,78,0.00,CLR,,0.00,WeatherDisplay:10.37,2013-07-09 18:20:00,
2013-07-09 13:25:00,78.2,70.8,30.17,WSW,249,2.0,3.0,78,0.00,CLR,,0.00,WeatherDisplay:10.37,2013-07-09 18:25:00,
2013-07-09 13:30:00,79.2,71.7,30.17,WSW,249,2.0,3.0,78,0.00,CLR,,0.00,WeatherDisplay:10.37,2013-07-09 18:30:00,
2013-07-09 13:35:00,80.4,72.1,30.16,WSW,249,2.0,3.0,76,0.00,CLR,,0.00,WeatherDisplay:10.37,2013-07-09 18:35:00,
2013-07-09 13:40:00,80.9,71.8,30.16,WSW,249,2.0,3.0,74,0.00,CLR,,0.00,WeatherDisplay:10.37,2013-07-09 18:40:00,
2013-07-09 13:45:00,81.3,71.8,30.17,WSW,249,2.0,3.0,73,0.00,CLR,,0.00,WeatherDisplay:10.37,2013-07-09 18:45:00,
2013-07-09 13:50:00,81.3,71.4,30.17,WSW,249,2.0,3.0,72,0.00,CLR,,0.00,WeatherDisplay:10.37,2013-07-09 18:50:00,
2013-07-09 14:00:00,81.3,71.4,30.16,WSW,249,2.0,3.0,72,0.00,CLR,,0.00,WeatherDisplay:10.37,2013-07-09 19:00:00,
2013-07-09 14:10:00,81.3,71.0,30.16,WSW,249,2.0,3.0,71,0.00,CLR,,0.00,WeatherDisplay:10.37,2013-07-09 19:10:00,
2013-07-09 14:15:00,81.1,71.3,30.15,WSW,249,2.0,3.0,72,0.00,CLR,,0.00,WeatherDisplay:10.37,2013-07-09 19:15:00,
2013-07-09 14:20:00,81.4,71.5,30.15,WSW,249,2.0,3.0,72,0.00,CLR,,0.00,WeatherDisplay:10.37,2013-07-09 19:20:00,
2013-07-09 14:25:00,82.6,72.6,30.15,WSW,249,2.0,3.0,72,0.00,CLR,,0.00,WeatherDisplay:10.37,2013-07-09 19:25:00,
2013-07-09 14:30:00,84.2,73.8,30.15,WSW,249,2.0,3.0,71,0.00,CLR,,0.00,WeatherDisplay:10.37,2013-07-09 19:30:00,
2013-07-09 14:40:00,85.8,73.1,30.15,WSW,249,2.0,3.0,66,0.00,CLR,,0.00,WeatherDisplay:10.37,2013-07-09 19:40:00,
2013-07-09 14:45:00,86.4,73.2,30.15,WSW,249,2.0,3.0,65,0.00,CLR,,0.00,WeatherDisplay:10.37,2013-07-09 19:45:00,
2013-07-09 14:50:00,86.8,73.2,30.14,WSW,249,2.0,3.0,64,0.00,CLR,,0.00,WeatherDisplay:10.37,2013-07-09 19:50:00,
2013-07-09 14:55:00,87.1,72.5,30.14,WSW,249,2.0,3.0,62,0.00,CLR,,0.00,WeatherDisplay:10.37,2013-07-09 19:55:00,
2013-07-09 15:00:00,87.3,72.6,30.14,WSW,249,2.0,3.0,62,0.00,CLR,,0.00,WeatherDisplay:10.37,2013-07-09 20:00:00,
2013-07-09 15:05:00,87.8,72.7,30.14,WSW,249,2.0,3.0,61,0.00,CLR,,0.00,WeatherDisplay:10.37,2013-07-09 20:05:00,
2013-07-09 15:10:00,88.2,73.0,30.15,WSW,249,2.0,3.0,61,0.00,CLR,,0.00,WeatherDisplay:10.37,2013-07-09 20:10:00,
2013-07-09 15:15:00,88.3,73.2,30.14,WSW,249,2.0,3.0,61,0.00,CLR,,0.00,WeatherDisplay:10.37,2013-07-09 20:15:00,
2013-07-09 15:20:00,88.2,72.5,30.14,WSW,249,2.0,3.0,60,0.00,CLR,,0.00,WeatherDisplay:10.37,2013-07-09 20:20:00,
2013-07-09 15:25:00,88.0,72.4,30.13,WSW,249,2.0,3.0,60,0.00,CLR,,0.00,WeatherDisplay:10.37,2013-07-09 20:25:00,
2013-07-09 15:30:00,88.0,72.4,30.13,WSW,249,2.0,3.0,60,0.00,CLR,,0.00,WeatherDisplay:10.37,2013-07-09 20:30:00,
2013-07-09 15:35:00,89.3,73.1,30.13,WSW,249,2.0,3.0,59,0.00,CLR,,0.00,WeatherDisplay:10.37,2013-07-09 20:35:00,
2013-07-09 15:40:00,91.0,73.2,30.13,WSW,249,2.0,3.0,56,0.00,CLR,,0.00,WeatherDisplay:10.37,2013-07-09 20:40:00,
2013-07-09 15:50:00,90.3,70.9,30.13,WSW,249,2.0,3.0,53,0.00,CLR,,0.00,WeatherDisplay:10.37,2013-07-09 20:50:00,
2013-07-09 15:55:00,89.8,70.9,30.12,WSW,249,2.0,3.0,54,0.00,CLR,,0.00,WeatherDisplay:10.37,2013-07-09 20:55:00,
2013-07-09 16:00:00,88.6,70.3,30.13,WSW,249,2.0,3.0,55,0.00,CLR,,0.00,WeatherDisplay:10.37,2013-07-09 21:00:00,
2013-07-09 16:05:00,87.4,70.8,30.13,WSW,249,2.0,3.0,58,0.00,CLR,,0.00,WeatherDisplay:10.37,2013-07-09 21:05:00,
2013-07-09 16:10:00,86.7,71.2,30.14,WSW,249,2.0,3.0,60,0.00,CLR,,0.00,WeatherDisplay:10.37,2013-07-09 21:10:00,
2013-07-09 16:15:00,86.1,71.5,30.13,WSW,249,2.0,3.0,62,0.00,CLR,,0.00,WeatherDisplay:10.37,2013-07-09 21:15:00,
2013-07-09 16:20:00,85.0,71.0,30.13,WSW,249,2.0,3.0,63,0.00,CLR,,0.00,WeatherDisplay:10.37,2013-07-09 21:20:00,
2013-07-09 16:25:00,84.4,71.3,30.13,WSW,249,2.0,3.0,65,0.00,CLR,,0.00,WeatherDisplay:10.37,2013-07-09 21:25:00,
2013-07-09 16:30:00,83.6,71.1,30.13,WSW,249,2.0,3.0,66,0.00,CLR,,0.00,WeatherDisplay:10.37,2013-07-09 21:30:00,
2013-07-09 16:40:00,83.1,72.3,30.12,WSW,249,2.0,3.0,70,0.00,CLR,,0.00,WeatherDisplay:10.37,2013-07-09 21:40:00,
2013-07-09 16:45:00,83.3,72.5,30.12,WSW,249,2.0,3.0,70,0.00,CLR,,0.00,WeatherDisplay:10.37,2013-07-09 21:45:00,
2013-07-09 16:50:00,83.3,72.5,30.12,WSW,249,2.0,3.0,70,0.00,CLR,,0.00,WeatherDisplay:10.37,2013-07-09 21:50:00,
2013-07-09 16:55:00,83.3,72.5,30.11,WSW,249,2.0,3.0,70,0.00,CLR,,0.00,WeatherDisplay:10.37,2013-07-09 21:55:00,
2013-07-09 17:00:00,83.1,72.7,30.11,WSW,249,2.0,3.0,71,0.00,CLR,,0.00,WeatherDisplay:10.37,2013-07-09 22:00:00,
2013-07-09 17:05:00,82.8,72.4,30.11,WSW,249,2.0,3.0,71,0.00,CLR,,0.00,WeatherDisplay:10.37,2013-07-09 22:05:00,
2013-07-09 17:10:00,82.5,72.1,30.11,WSW,249,2.0,3.0,71,0.00,CLR,,0.00,WeatherDisplay:10.37,2013-07-09 22:10:00,
2013-07-09 17:20:00,82.2,71.9,30.11,WSW,249,2.0,3.0,71,0.00,CLR,,0.00,WeatherDisplay:10.37,2013-07-09 22:20:00,
2013-07-09 17:30:00,82.6,72.2,30.11,WSW,249,2.0,3.0,71,0.00,CLR,,0.00,WeatherDisplay:10.37,2013-07-09 22:30:00,
2013-07-09 17:35:00,83.3,72.9,30.10,WSW,249,2.0,3.0,71,0.00,CLR,,0.00,WeatherDisplay:10.37,2013-07-09 22:35:00,
2013-07-09 17:40:00,83.7,72.8,30.10,WSW,249,2.0,3.0,70,0.00,CLR,,0.00,WeatherDisplay:10.37,2013-07-09 22:40:00,
2013-07-09 17:45:00,83.8,72.6,30.10,WSW,249,2.0,3.0,69,0.00,CLR,,0.00,WeatherDisplay:10.37,2013-07-09 22:45:00,
2013-07-09 17:50:00,83.8,72.6,30.09,WSW,249,2.0,3.0,69,0.00,CLR,,0.00,WeatherDisplay:10.37,2013-07-09 22:50:00,
2013-07-09 17:55:00,83.3,72.1,30.09,WSW,249,2.0,3.0,69,0.00,CLR,,0.00,WeatherDisplay:10.37,2013-07-09 22:55:00,
2013-07-09 18:00:00,83.1,72.3,30.09,WSW,249,2.0,3.0,70,0.00,CLR,,0.00,WeatherDisplay:10.37,2013-07-09 23:00:00,
2013-07-09 18:05:00,83.3,72.9,30.09,WSW,249,2.0,3.0,71,0.00,CLR,,0.00,WeatherDisplay:10.37,2013-07-09 23:05:00,
2013-07-09 18:10:00,84.0,73.2,30.09,WSW,249,2.0,3.0,70,0.00,CLR,,0.00,WeatherDisplay:10.37,2013-07-09 23:10:00,
2013-07-09 18:15:00,84.7,73.9,30.09,WSW,249,2.0,3.0,70,0.00,CLR,,0.00,WeatherDisplay:10.37,2013-07-09 23:15:00,
2013-07-09 18:20:00,85.8,74.0,30.09,WSW,249,2.0,3.0,68,0.00,CLR,,0.00,WeatherDisplay:10.37,2013-07-09 23:20:00,
2013-07-09 18:30:00,85.8,73.1,30.09,WSW,249,2.0,3.0,66,0.00,CLR,,0.00,WeatherDisplay:10.37,2013-07-09 23:30:00,
2013-07-09 18:35:00,85.5,72.8,30.09,WSW,249,2.0,3.0,66,0.00,CLR,,0.00,WeatherDisplay:10.37,2013-07-09 23:35:00,
2013-07-09 18:40:00,85.1,72.5,30.09,WSW,249,2.0,3.0,66,0.00,CLR,,0.00,WeatherDisplay:10.37,2013-07-09 23:40:00,
2013-07-09 18:45:00,85.1,72.9,30.09,WSW,249,2.0,3.0,67,0.00,CLR,,0.00,WeatherDisplay:10.37,2013-07-09 23:45:00,
2013-07-09 18:50:00,84.6,73.3,30.09,WSW,249,2.0,3.0,69,0.00,CLR,,0.00,WeatherDisplay:10.37,2013-07-09 23:50:00,
2013-07-09 19:00:00,83.2,72.4,30.09,WSW,249,2.0,3.0,70,0.00,CLR,,0.00,WeatherDisplay:10.37,2013-07-10 00:00:00,
2013-07-09 19:05:00,82.6,72.6,30.09,WSW,249,2.0,3.0,72,0.00,CLR,,0.00,WeatherDisplay:10.37,2013-07-10 00:05:00,
2013-07-09 19:10:00,82.6,73.0,30.08,WSW,249,2.0,3.0,73,0.00,CLR,,0.00,WeatherDisplay:10.37,2013-07-10 00:10:00,
2013-07-09 19:15:00,82.8,73.6,30.08,WSW,249,2.0,3.0,74,0.00,CLR,,0.00,WeatherDisplay:10.37,2013-07-10 00:15:00,
2013-07-09 19:25:00,82.8,73.6,30.09,WSW,249,2.0,3.0,74,0.00,CLR,,0.00,WeatherDisplay:10.37,2013-07-10 00:25:00,
2013-07-09 19:30:00,82.8,73.6,30.09,WSW,249,2.0,3.0,74,0.00,CLR,,0.00,WeatherDisplay:10.37,2013-07-10 00:30:00,
2013-07-09 19:35:00,82.8,73.6,30.09,WSW,249,2.0,3.0,74,0.00,CLR,,0.00,WeatherDisplay:10.37,2013-07-10 00:35:00,
2013-07-09 19:40:00,82.6,73.4,30.09,WSW,249,2.0,3.0,74,0.00,CLR,,0.00,WeatherDisplay:10.37,2013-07-10 00:40:00,
2013-07-09 19:50:00,82.0,73.3,30.09,WSW,249,2.0,3.0,75,0.00,CLR,,0.00,WeatherDisplay:10.37,2013-07-10 00:50:00,
2013-07-09 19:55:00,81.9,73.2,30.09,WSW,249,2.0,3.0,75,0.00,CLR,,0.00,WeatherDisplay:10.37,2013-07-10 00:55:00,
2013-07-09 20:05:00,81.3,73.0,30.09,WSW,249,2.0,3.0,76,0.00,CLR,,0.00,WeatherDisplay:10.37,2013-07-10 01:05:00,
2013-07-09 20:10:00,81.0,72.7,30.09,WSW,249,2.0,3.0,76,0.00,CLR,,0.00,WeatherDisplay:10.37,2013-07-10 01:10:00,
2013-07-09 20:20:00,80.2,72.4,30.09,WSW,249,2.0,3.0,77,0.00,CLR,,0.00,WeatherDisplay:10.37,2013-07-10 01:20:00,
2013-07-09 20:30:00,79.9,72.8,30.09,WSW,249,2.0,3.0,79,0.00,CLR,,0.00,WeatherDisplay:10.37,2013-07-10 01:30:00,
2013-07-09 20:35:00,79.5,72.4,30.09,WSW,249,2.0,3.0,79,0.00,CLR,,0.00,WeatherDisplay:10.37,2013-07-10 01:35:00,
2013-07-09 20:40:00,79.5,72.4,30.08,WSW,249,2.0,3.0,79,0.00,CLR,,0.00,WeatherDisplay:10.37,2013-07-10 01:40:00,
2013-07-09 20:45:00,79.2,72.8,30.09,WSW,249,2.0,3.0,81,0.00,CLR,,0.00,WeatherDisplay:10.37,2013-07-10 01:45:00,
2013-07-09 20:50:00,79.0,72.6,30.09,WSW,249,2.0,3.0,81,0.00,CLR,,0.00,WeatherDisplay:10.37,2013-07-10 01:50:00,
2013-07-09 21:00:00,78.4,72.5,30.08,WSW,249,2.0,3.0,82,0.00,CLR,,0.00,WeatherDisplay:10.37,2013-07-10 02:00:00,
2013-07-09 21:05:00,78.4,72.5,30.09,WSW,249,2.0,3.0,82,0.00,CLR,,0.00,WeatherDisplay:10.37,2013-07-10 02:05:00,
2013-07-09 21:10:00,78.3,72.7,30.09,WSW,249,2.0,3.0,83,0.00,CLR,,0.00,WeatherDisplay:10.37,2013-07-10 02:10:00,
2013-07-09 21:15:00,77.9,72.3,30.09,WSW,249,2.0,3.0,83,0.00,CLR,,0.00,WeatherDisplay:10.37,2013-07-10 02:15:00,
2013-07-09 21:25:00,77.9,72.7,30.09,WSW,249,2.0,3.0,84,0.00,CLR,,0.00,WeatherDisplay:10.37,2013-07-10 02:25:00,
2013-07-09 21:30:00,77.7,72.5,30.09,WSW,249,2.0,3.0,84,0.00,CLR,,0.00,WeatherDisplay:10.37,2013-07-10 02:30:00,
2013-07-09 21:40:00,77.7,72.8,30.09,WSW,249,2.0,3.0,85,0.00,CLR,,0.00,WeatherDisplay:10.37,2013-07-10 02:40:00,
2013-07-09 21:45:00,77.7,72.8,30.09,WSW,249,2.0,3.0,85,0.00,CLR,,0.00,WeatherDisplay:10.37,2013-07-10 02:45:00,
2013-07-09 21:55:00,77.7,73.2,30.09,WSW,249,2.0,3.0,86,0.00,CLR,,0.00,WeatherDisplay:10.37,2013-07-10 02:55:00,
2013-07-09 22:00:00,77.4,72.8,30.09,WSW,249,2.0,3.0,86,0.00,CLR,,0.00,WeatherDisplay:10.37,2013-07-10 03:00:00,
2013-07-09 22:05:00,77.4,72.8,30.09,WSW,249,2.0,3.0,86,0.00,CLR,,0.00,WeatherDisplay:10.37,2013-07-10 03:05:00,
2013-07-09 22:10:00,77.4,72.8,30.09,WSW,249,2.0,3.0,86,0.00,CLR,,0.00,WeatherDisplay:10.37,2013-07-10 03:10:00,
2013-07-09 22:20:00,77.4,72.8,30.09,WSW,249,2.0,3.0,86,0.00,CLR,,0.00,WeatherDisplay:10.37,2013-07-10 03:20:00,
2013-07-09 22:30:00,77.4,73.2,30.09,WSW,249,2.0,3.0,87,0.00,CLR,,0.00,WeatherDisplay:10.37,2013-07-10 03:30:00,
2013-07-09 22:40:00,77.4,73.2,30.09,WSW,249,2.0,3.0,87,0.00,CLR,,0.00,WeatherDisplay:10.37,2013-07-10 03:40:00,
2013-07-09 22:45:00,77.4,73.2,30.09,WSW,249,2.0,2.0,87,0.00,CLR,,0.00,WeatherDisplay:10.37,2013-07-10 03:45:00,
2013-07-09 22:55:00,77.5,73.4,30.10,WSW,249,2.0,3.0,87,0.00,CLR,,0.00,WeatherDisplay:10.37,2013-07-10 03:55:00,
2013-07-09 23:00:00,77.5,73.4,30.10,WSW,249,2.0,3.0,87,0.00,CLR,,0.00,WeatherDisplay:10.37,2013-07-10 04:00:00,
2013-07-09 23:05:00,77.5,73.4,30.10,WSW,249,2.0,3.0,87,0.00,CLR,,0.00,WeatherDisplay:10.37,2013-07-10 04:05:00,
2013-07-09 23:10:00,77.4,73.2,30.10,WSW,249,2.0,3.0,87,0.00,CLR,,0.00,WeatherDisplay:10.37,2013-07-10 04:10:00,
2013-07-09 23:15:00,77.4,73.2,30.10,WSW,249,2.0,3.0,87,0.00,CLR,,0.00,WeatherDisplay:10.37,2013-07-10 04:15:00,
2013-07-09 23:20:00,77.4,72.8,30.09,WSW,249,2.0,3.0,86,0.00,CLR,,0.00,WeatherDisplay:10.37,2013-07-10 04:20:00,
2013-07-09 23:25:00,77.4,72.8,30.09,WSW,249,2.0,3.0,86,0.00,CLR,,0.00,WeatherDisplay:10.37,2013-07-10 04:25:00,
2013-07-09 23:30:00,77.4,72.8,30.10,WSW,249,2.0,3.0,86,0.00,CLR,,0.00,WeatherDisplay:10.37,2013-07-10 04:30:00,
2013-07-09 23:35:00,77.2,72.7,30.09,WSW,249,2.0,3.0,86,0.00,CLR,,0.00,WeatherDisplay:10.37,2013-07-10 04:35:00,
2013-07-09 23:40:00,77.2,72.7,30.10,WSW,249,2.0,3.0,86,0.00,CLR,,0.00,WeatherDisplay:10.37,2013-07-10 04:40:00,
2013-07-09 23:45:00,77.2,72.7,30.09,WSW,249,2.0,3.0,86,0.00,CLR,,0.00,WeatherDisplay:10.37,2013-07-10 04:45:00,
2013-07-09 23:50:00,77.2,72.7,30.10,WSW,249,2.0,3.0,86,0.00,CLR,,0.00,WeatherDisplay:10.37,2013-07-10 04:50:00,
2013-07-09 23:55:00,77.2,73.0,30.10,WSW,249,2.0,3.0,87,0.00,CLR,,0.00,WeatherDisplay:10.37,2013-07-10 04:55:00,